Time;durP1;ratioP1;P1;durP2;ratioP2;P2;SDS_P1;SDS_P2;PMS_P1;PMS_P2;Temp;Humidity;BMP_temperature;BMP_pressure;BME280_temperature;BME280_humidity;BME280_pressure;Samples;Min_cycle;Max_cycle;Signal;HPM_P1;HPM_P2
2022/04/13 00:00:56;;;;;;;6.10;3.00;;;11.20;96.80;;;10.19;70.56;96998.16;5009210;28;20416;-80
2022/04/13 00:03:22;;;;;;;11.65;3.38;;;11.10;96.30;;;10.22;71.03;96992.38;5009389;28;20420;-80
2022/04/13 00:05:48;;;;;;;6.43;3.05;;;11.20;97.20;;;10.12;71.39;96984.34;5009451;28;20421;-80
2022/04/13 00:08:14;;;;;;;6.30;3.22;;;11.10;96.70;;;10.17;71.02;97000.25;5009247;28;20424;-79
2022/04/13 00:10:40;;;;;;;8.85;3.40;;;11.00;96.80;;;10.24;70.76;96994.72;5008839;28;20496;-80
2022/04/13 00:13:08;;;;;;;6.68;3.17;;;11.10;96.90;;;10.26;70.76;96998.72;5009291;28;20454;-80
2022/04/13 00:15:34;;;;;;;9.35;2.97;;;11.10;96.50;;;10.21;69.99;96988.13;5009334;28;20740;-79
2022/04/13 00:18:05;;;;;;;10.65;3.10;;;11.10;95.70;;;10.27;70.44;97002.97;5009134;28;20416;-80
2022/04/13 00:20:31;;;;;;;10.37;3.40;;;11.10;96.80;;;10.33;69.58;97001.13;5008743;28;20527;-80
2022/04/13 00:22:56;;;;;;;4.90;2.88;;;11.20;95.70;;;10.30;69.48;96996.38;5009195;28;20955;-79
2022/04/13 00:25:22;;;;;;;9.55;3.00;;;11.20;95.30;;;10.35;70.01;96997.19;5009038;28;20409;-80
2022/04/13 00:27:48;;;;;;;11.43;3.35;;;11.20;96.20;;;10.32;69.45;96997.69;5008930;28;20823;-79
2022/04/13 00:30:15;;;;;;;6.97;2.53;;;11.20;95.60;;;10.33;70.80;97001.13;5008537;28;20567;-79
2022/04/13 00:32:41;;;;;;;8.50;2.78;;;11.20;96.40;;;10.29;69.92;97000.88;5009039;28;20405;-80
2022/04/13 00:35:07;;;;;;;4.43;2.67;;;11.20;96.00;;;10.26;69.91;97001.38;5008936;28;20964;-80
2022/04/13 00:37:33;;;;;;;7.38;2.97;;;11.20;95.60;;;10.30;70.55;96997.13;5008853;28;20413;-80
2022/04/13 00:39:59;;;;;;;7.25;3.15;;;11.20;96.70;;;10.30;69.64;97004.31;5008960;28;20562;-80
2022/04/13 00:42:26;;;;;;;9.70;3.30;;;11.20;95.70;;;10.33;69.51;96996.63;5008449;28;20462;-80
2022/04/13 00:44:52;;;;;;;5.43;2.70;;;11.20;95.30;;;10.27;69.31;96994.22;5008909;28;20409;-80
2022/04/13 00:47:20;;;;;;;10.20;2.72;;;11.20;94.80;;;10.27;69.00;96997.66;5008655;28;20420;-79
2022/04/13 00:49:47;;;;;;;8.25;2.85;;;11.10;94.80;;;10.25;69.08;96996.31;5008664;28;20433;-80
2022/04/13 00:52:13;;;;;;;5.35;2.80;;;11.10;94.80;;;10.20;69.29;96997.13;5008306;28;20437;-79
2022/04/13 00:54:45;;;;;;;10.65;3.38;;;11.10;95.00;;;10.23;70.35;96993.94;5008724;28;20648;-80
2022/04/13 00:57:13;;;;;;;10.55;2.88;;;11.10;95.70;;;10.08;70.05;96996.47;5008704;28;20431;-80
2022/04/13 00:59:40;;;;;;;10.57;2.85;;;11.00;95.50;;;10.08;70.16;96994.63;5008026;28;20424;-80
2022/04/13 01:02:08;;;;;;;6.50;3.00;;;11.00;95.70;;;9.97;70.70;97005.41;5008178;28;20397;-80
2022/04/13 01:04:36;;;;;;;5.93;3.13;;;10.90;96.00;;;9.94;71.46;96998.78;5008587;28;20409;-80
2022/04/13 01:07:06;;;;;;;6.32;3.20;;;10.80;97.00;;;9.87;70.86;97000.06;5008422;28;20456;-80
2022/04/13 01:09:33;;;;;;;10.73;3.00;;;10.80;96.40;;;9.81;70.95;97001.09;5008520;28;20478;-79
2022/04/13 01:11:59;;;;;;;3.97;2.80;;;10.80;96.50;;;9.84;70.42;97004.03;5008074;28;20408;-80
2022/04/13 01:14:25;;;;;;;8.00;3.10;;;10.70;95.90;;;9.79;70.93;97006.63;5008428;28;20784;-80
2022/04/13 01:16:51;;;;;;;6.90;3.20;;;10.70;96.30;;;9.78;70.66;97007.66;5008254;28;20465;-80
2022/04/13 01:19:18;;;;;;;6.28;3.13;;;10.70;96.50;;;9.75;70.73;97007.41;5008276;28;20507;-80
2022/04/13 01:21:52;;;;;;;8.45;3.17;;;10.70;96.30;;;9.70;71.62;97001.00;5007886;28;20409;-80
2022/04/13 01:24:21;;;;;;;9.32;3.50;;;10.60;96.90;;;9.62;71.48;97009.41;5008246;28;20427;-79
2022/04/13 01:26:47;;;;;;;7.88;3.15;;;10.60;96.90;;;9.55;71.73;97008.84;5008017;28;20412;-78
2022/04/13 01:29:13;;;;;;;6.85;3.13;;;10.50;96.90;;;9.53;72.00;97007.53;5007990;28;20451;-79
2022/04/13 01:31:39;;;;;;;6.68;2.85;;;10.50;97.20;;;9.52;71.63;97004.06;5007780;28;20420;-79
2022/04/13 01:34:07;;;;;;;8.23;3.05;;;10.50;97.20;;;9.42;71.49;97011.13;5008118;28;20404;-80
2022/04/13 01:36:35;;;;;;;3.93;3.00;;;10.40;96.90;;;9.46;72.53;97009.56;5008054;28;20412;-79
2022/04/13 01:39:02;;;;;;;7.88;2.63;;;10.40;98.10;;;9.38;71.49;97016.13;5007770;28;20777;-79
2022/04/13 01:41:29;;;;;;;6.90;3.00;;;10.30;97.50;;;9.43;73.38;97018.00;5007661;28;20706;-79
2022/04/13 01:43:56;;;;;;;8.50;3.15;;;10.30;98.70;;;9.43;71.49;97020.63;5008070;28;20814;-79
2022/04/13 01:46:21;;;;;;;5.77;2.87;;;10.30;97.20;;;9.31;71.72;97026.09;5007953;28;20551;-80
2022/04/13 01:48:48;;;;;;;7.30;2.95;;;;;;;9.16;72.21;97024.13;5007542;28;20516;-80
2022/04/13 01:51:14;;;;;;;11.70;3.20;;;10.10;97.00;;;9.08;72.86;97023.78;5007566;28;20440;-79
2022/04/13 01:53:40;;;;;;;6.60;3.00;;;10.10;97.80;;;8.90;73.38;97023.06;5007893;28;20409;-79
2022/04/13 01:56:06;;;;;;;5.20;2.85;;;9.90;98.00;;;8.82;73.41;97034.06;5007850;28;20420;-79
2022/04/13 01:58:33;;;;;;;8.75;3.10;;;9.80;98.20;;;8.78;74.04;97025.06;5007638;28;20409;-79
2022/04/13 02:00:59;;;;;;;6.60;3.28;;;9.80;98.80;;;8.75;73.93;97037.94;5007395;28;20797;-80
2022/04/13 02:03:26;;;;;;;6.22;3.10;;;9.70;98.80;;;8.76;74.16;97042.19;5007735;28;20502;-80
2022/04/13 02:05:52;;;;;;;9.82;3.30;;;9.70;99.30;;;8.77;75.07;97047.22;5007590;28;20428;-79
2022/04/13 02:08:19;;;;;;;10.55;3.10;;;9.70;99.80;;;8.74;74.71;97047.72;5007517;28;20594;-80
2022/04/13 02:10:45;;;;;;;9.55;3.30;;;9.70;99.40;;;8.67;75.12;97046.31;5007602;28;20487;-79
2022/04/13 02:13:11;;;;;;;10.13;3.53;;;9.60;99.90;;;8.59;75.07;97039.63;5011260;28;20412;-79
2022/04/13 02:15:39;;;;;;;11.43;3.20;;;9.60;99.90;;;8.53;75.14;97049.31;5011131;28;20400;-79
2022/04/13 02:18:05;;;;;;;5.35;2.92;;;9.50;99.90;;;8.52;76.65;97045.09;5011061;28;20393;-79
2022/04/13 02:20:32;;;;;;;8.20;3.53;;;9.50;99.90;;;8.47;76.47;97045.03;5010603;28;20401;-79
2022/04/13 02:22:58;;;;;;;11.13;3.20;;;9.50;99.90;;;8.46;76.30;97042.63;5010997;28;20436;-79
2022/04/13 02:25:24;;;;;;;6.80;3.70;;;9.40;99.90;;;8.48;76.45;97041.34;5010939;28;20404;-79
2022/04/13 02:27:50;;;;;;;7.60;3.45;;;9.40;99.90;;;8.46;76.75;97046.06;5010664;28;20824;-79
2022/04/13 02:30:16;;;;;;;13.20;3.40;;;9.40;99.90;;;8.43;76.86;97051.81;5010547;28;20409;-80
2022/04/13 02:32:44;;;;;;;7.68;3.60;;;9.40;99.90;;;8.42;76.12;97052.88;5010906;28;20405;-80
2022/04/13 02:35:11;;;;;;;9.80;3.85;;;9.40;99.90;;;8.47;75.36;97052.94;5010851;28;20408;-79
2022/04/13 02:37:38;;;;;;;8.15;3.70;;;9.40;99.90;;;8.45;75.28;97054.22;5010633;28;20805;-79
2022/04/13 02:40:06;;;;;;;7.15;3.80;;;9.40;99.90;;;8.49;75.94;97056.13;5010490;28;20404;-79
2022/04/13 02:42:33;;;;;;;9.00;3.63;;;9.40;99.90;;;8.39;76.35;97053.38;5009192;28;20778;-79
2022/04/13 02:45:03;;;;;;;10.88;4.05;;;9.40;99.90;;;8.35;76.48;97056.72;5010720;28;20910;-79
2022/04/13 02:47:31;;;;;;;12.98;3.88;;;9.30;99.90;;;8.40;77.86;97059.44;5010491;28;20786;-79
2022/04/13 02:50:00;;;;;;;9.75;4.20;;;9.30;99.90;;;8.36;77.23;97053.06;5010414;28;20527;-79
2022/04/13 02:52:28;;;;;;;7.45;3.88;;;9.40;99.90;;;8.22;77.58;97060.50;5009932;28;20403;-79
2022/04/13 02:54:54;;;;;;;8.05;3.92;;;9.20;99.90;;;8.16;77.82;97058.84;5010575;28;20952;-79
2022/04/13 02:57:20;;;;;;;6.72;3.85;;;9.20;99.90;;;8.13;78.03;97059.31;5010378;28;20484;-80
2022/04/13 02:59:46;;;;;;;9.93;4.10;;;9.10;99.90;;;8.10;79.05;97060.63;5010422;28;20480;-79
2022/04/13 03:02:14;;;;;;;8.93;4.10;;;9.10;99.90;;;8.07;79.10;97053.19;5010003;28;20404;-80
2022/04/13 03:04:40;;;;;;;7.43;4.50;;;9.10;99.90;;;8.00;79.07;97059.66;5010368;28;21187;-80
2022/04/13 03:07:07;;;;;;;11.13;4.07;;;9.00;99.90;;;7.98;79.32;97059.09;5008923;28;20409;-79
2022/04/13 03:09:33;;;;;;;10.93;4.45;;;9.00;99.90;;;7.94;79.16;97061.44;5010263;28;20422;-79
2022/04/13 03:11:59;;;;;;;8.10;4.68;;;8.90;99.90;;;7.96;79.50;97058.56;5009904;28;20417;-79
2022/04/13 03:14:26;;;;;;;9.35;4.47;;;8.90;99.90;;;7.93;79.91;97059.03;5010151;28;20414;-79
2022/04/13 03:16:52;;;;;;;12.85;3.95;;;8.90;99.90;;;7.94;80.78;97064.06;5010278;28;20454;-79
2022/04/13 03:19:18;;;;;;;8.88;4.10;;;8.90;99.90;;;7.91;80.19;97058.47;5010007;28;20405;-79
2022/04/13 03:21:46;;;;;;;10.70;4.43;;;;;;;7.85;80.11;97062.06;5009351;28;20409;-80
2022/04/13 03:24:13;;;;;;;10.80;4.38;;;;;;;7.86;80.18;97061.84;5010017;28;20450;-79
2022/04/13 03:26:39;;;;;;;9.23;4.15;;;;;;;7.84;80.12;97052.56;5010024;28;20466;-79
2022/04/13 03:29:05;;;;;;;7.53;4.25;;;8.80;99.90;;;7.86;81.19;97061.84;5009522;28;20512;-79
2022/04/13 03:31:31;;;;;;;7.67;4.20;;;8.80;99.90;;;7.86;80.97;97067.13;5009528;28;20406;-79
2022/04/13 03:33:57;;;;;;;9.52;3.85;;;;;;;7.99;80.39;97063.34;5009951;28;20401;-79
2022/04/13 03:36:23;;;;;;;8.70;4.30;;;8.90;99.90;;;7.85;80.55;97057.59;5009794;28;20419;-80
2022/04/13 03:38:49;;;;;;;9.30;4.45;;;8.90;99.90;;;7.83;80.58;97056.25;5009674;28;20409;-79
2022/04/13 03:41:16;;;;;;;7.80;4.30;;;8.80;99.90;;;7.80;80.91;97052.28;5009489;28;20405;-79
2022/04/13 03:43:42;;;;;;;9.48;4.07;;;8.80;99.90;;;7.80;81.38;97054.91;5009738;28;20413;-80
2022/04/13 03:46:08;;;;;;;8.05;3.90;;;8.80;99.90;;;7.78;81.17;97049.88;5009700;28;20569;-79
2022/04/13 03:48:34;;;;;;;10.65;4.18;;;8.80;99.90;;;7.75;81.24;97052.97;5009615;28;20420;-79
2022/04/13 03:51:00;;;;;;;8.57;3.97;;;8.70;99.90;;;7.72;81.56;97058.75;5009328;28;20761;-80
2022/04/13 03:53:26;;;;;;;8.50;4.63;;;8.70;99.90;;;7.69;81.74;97056.56;5009621;28;20411;-80
2022/04/13 03:55:52;;;;;;;10.38;3.72;;;8.70;99.90;;;7.70;82.02;97058.19;5009581;28;20504;-79
2022/04/13 03:58:19;;;;;;;8.00;4.33;;;8.70;99.90;;;7.67;82.09;97060.47;5008379;28;20420;-79
2022/04/13 04:00:45;;;;;;;12.90;5.03;;;8.70;99.90;;;7.63;82.30;97060.19;5009087;28;20449;-79
2022/04/13 04:03:12;;;;;;;10.57;5.53;;;8.70;99.90;;;7.71;83.19;97058.97;5009433;28;20532;-79
2022/04/13 04:05:38;;;;;;;12.53;5.57;;;8.70;99.90;;;7.70;82.88;97057.38;5009421;28;20443;-79
2022/04/13 04:08:04;;;;;;;14.57;6.75;;;8.70;99.90;;;7.66;82.35;97062.34;5009294;28;20427;-79
2022/04/13 04:10:30;;;;;;;12.35;5.30;;;8.70;99.90;;;7.69;82.29;97066.31;5008885;28;20419;-79
2022/04/13 04:12:56;;;;;;;20.73;9.10;;;8.70;99.90;;;7.60;81.86;97065.13;5009345;28;20510;-78
2022/04/13 04:15:24;;;;;;;13.05;4.90;;;8.60;99.90;;;7.57;82.31;97062.97;5009418;28;20883;-79
2022/04/13 04:17:49;;;;;;;18.13;5.43;;;8.60;99.90;;;7.60;82.65;97073.00;5009149;28;20546;-79
2022/04/13 04:20:15;;;;;;;12.48;4.80;;;8.60;99.90;;;7.57;82.87;97066.41;5008730;28;20956;-79
2022/04/13 04:22:41;;;;;;;12.10;4.83;;;8.60;99.90;;;7.58;82.78;97067.22;5009204;28;20862;-79
2022/04/13 04:25:09;;;;;;;11.02;4.45;;;8.60;99.90;;;7.56;82.97;97064.81;5009113;28;20401;-79
2022/04/13 04:27:35;;;;;;;9.98;4.47;;;8.50;99.90;;;7.57;83.12;97061.16;5030506;22;20398;-71
2022/04/13 04:30:01;;;;;;;12.23;4.33;;;8.60;99.90;;;7.71;82.36;97066.88;5072720;28;20403;-71
2022/04/13 04:32:29;;;;;;;7.38;4.18;;;;;;;7.59;82.13;97068.81;5070787;28;20489;-71
2022/04/13 04:34:55;;;;;;;13.50;5.13;;;8.60;99.90;;;7.61;82.66;97079.88;5070836;28;20836;-71
2022/04/13 04:37:21;;;;;;;11.40;4.85;;;8.60;99.90;;;7.71;81.99;97074.78;5071479;28;20487;-71
2022/04/13 04:39:47;;;;;;;13.88;4.72;;;8.60;99.90;;;7.70;82.24;97066.09;5070075;28;20491;-71
2022/04/13 04:42:12;;;;;;;9.68;4.43;;;8.60;99.90;;;7.80;81.50;97077.81;5070957;28;20440;-71
2022/04/13 04:44:38;;;;;;;12.13;4.72;;;8.70;99.90;;;7.75;81.78;97075.88;5071305;28;20495;-70
2022/04/13 04:47:05;;;;;;;10.82;4.53;;;8.70;99.90;;;7.75;81.92;97078.53;5071233;28;20407;-71
2022/04/13 04:49:32;;;;;;;8.88;4.03;;;8.70;99.90;;;7.67;82.56;97079.72;5071111;28;20873;-71
2022/04/13 04:51:58;;;;;;;8.82;4.25;;;;;;;7.72;82.63;97079.81;5069574;28;20767;-71
2022/04/13 04:54:24;;;;;;;12.88;4.43;;;8.70;99.90;;;7.75;82.87;97075.88;5071218;28;20407;-71
2022/04/13 04:56:50;;;;;;;10.90;4.60;;;8.70;99.90;;;7.73;82.40;97078.00;5071086;28;20392;-71
2022/04/13 04:59:16;;;;;;;8.75;4.60;;;8.70;99.90;;;7.71;82.45;97077.41;5071001;28;20821;-71
2022/04/13 05:01:42;;;;;;;11.73;4.20;;;8.70;99.90;;;7.78;82.32;97080.69;5070722;28;20562;-71
2022/04/13 05:04:09;;;;;;;11.35;4.43;;;8.70;99.90;;;7.77;82.50;97079.09;5070979;28;20396;-70
2022/04/13 05:06:36;;;;;;;18.35;4.72;;;8.70;99.90;;;7.83;82.53;97083.38;5064406;28;20420;-71
2022/04/13 05:09:02;;;;;;;7.43;3.97;;;8.80;99.90;;;7.89;82.58;97084.28;5070649;28;20422;-71
2022/04/13 05:11:28;;;;;;;15.40;4.57;;;8.80;99.90;;;7.93;82.30;97093.28;5080749;28;20398;-71
2022/04/13 05:13:54;;;;;;;10.40;4.40;;;8.90;99.90;;;8.13;81.96;97090.94;5082470;28;20402;-71
2022/04/13 05:16:20;;;;;;;13.18;3.95;;;8.90;99.90;;;8.12;81.99;97086.72;5077840;28;20407;-70
2022/04/13 05:18:46;;;;;;;8.65;4.45;;;9.00;99.90;;;8.18;81.44;97090.25;5070322;28;20430;-71
2022/04/13 05:21:13;;;;;;;18.10;4.07;;;9.10;99.90;;;8.29;81.98;97084.03;5078420;28;20506;-70
2022/04/13 05:23:43;;;;;;;11.63;4.70;;;9.20;99.90;;;8.32;81.21;97089.69;5086311;28;20972;-70
2022/04/13 05:26:10;;;;;;;7.68;4.03;;;9.20;99.90;;;8.40;80.97;97088.47;5090901;28;20438;-71
2022/04/13 05:28:36;;;;;;;10.68;4.30;;;9.30;99.90;;;8.50;80.77;97093.84;5090517;28;20414;-70
2022/04/13 05:31:02;;;;;;;9.57;4.30;;;9.40;99.90;;;8.59;80.91;97100.31;5080753;28;20409;-70
2022/04/13 05:33:28;;;;;;;9.40;4.30;;;9.50;99.90;;;8.74;80.80;97097.84;5084543;28;20394;-70
2022/04/13 05:35:54;;;;;;;10.00;3.90;;;9.60;99.90;;;8.82;80.69;97086.84;5090727;28;20394;-72
2022/04/13 05:38:20;;;;;;;9.43;3.92;;;9.70;99.90;;;8.91;80.61;97103.84;5084366;28;20392;-72
2022/04/13 05:40:48;;;;;;;13.07;4.07;;;;;;;9.09;80.54;97105.38;5086562;28;20747;-71
2022/04/13 05:43:14;;;;;;;12.20;3.72;;;10.10;99.90;;;9.21;80.14;97115.78;5090506;28;20947;-72
2022/04/13 05:45:40;;;;;;;12.13;3.80;;;10.10;99.90;;;9.36;79.70;97104.59;5106132;28;20398;-71
2022/04/13 05:48:06;;;;;;;9.85;3.42;;;10.20;99.90;;;9.40;80.35;97111.75;5090283;28;20962;-71
2022/04/13 05:50:32;;;;;;;11.05;3.40;;;10.30;99.90;;;9.62;80.38;97115.13;5090047;28;20488;-71
2022/04/13 05:52:58;;;;;;;9.30;3.03;;;10.40;99.90;;;9.67;78.63;97115.19;5090618;28;20481;-72
2022/04/13 05:55:24;;;;;;;8.50;3.13;;;10.50;99.90;;;9.82;78.56;97119.78;5090483;28;20497;-71
2022/04/13 05:57:51;;;;;;;6.43;3.78;;;10.70;99.90;;;10.01;79.34;97123.63;5079117;28;20452;-71
2022/04/13 06:00:18;;;;;;;10.80;3.73;;;10.80;99.90;;;10.07;78.19;97127.91;5081469;28;21050;-71
2022/04/13 06:02:44;;;;;;;5.85;3.25;;;10.90;99.90;;;10.18;78.51;97123.53;5080951;28;20800;-71
2022/04/13 06:05:11;;;;;;;7.18;3.58;;;11.00;99.90;;;10.38;77.20;97125.50;5081592;28;20447;-72
2022/04/13 06:07:37;;;;;;;10.32;4.28;;;11.10;99.90;;;10.47;76.41;97130.06;5088809;28;20401;-71
2022/04/13 06:10:05;;;;;;;8.25;3.17;;;11.30;99.90;;;10.70;76.78;97131.50;5080491;28;20400;-71
2022/04/13 06:12:32;;;;;;;9.82;2.90;;;11.50;99.90;;;10.82;76.54;97133.94;5088890;28;20912;-71
2022/04/13 06:15:05;;;;;;;11.30;2.88;;;11.60;99.90;;;10.90;75.37;97137.94;5090261;28;20905;-72
2022/04/13 06:17:31;;;;;;;8.50;3.20;;;11.70;99.90;;;10.97;74.72;97134.00;5090084;28;20408;-72
2022/04/13 06:19:57;;;;;;;9.20;2.80;;;11.70;99.90;;;10.99;75.39;97137.16;5090331;28;20446;-71
2022/04/13 06:22:23;;;;;;;8.45;3.33;;;11.80;99.90;;;11.06;74.31;97137.72;5089849;28;20398;-71
2022/04/13 06:24:51;;;;;;;15.02;4.70;;;11.80;99.90;;;11.12;73.10;97136.72;5075801;28;20504;-71
2022/04/13 06:27:18;;;;;;;13.93;5.05;;;11.90;99.60;;;11.25;72.97;97141.50;5077656;28;20473;-71
2022/04/13 06:29:44;;;;;;;12.07;5.40;;;12.00;99.50;;;11.38;73.21;97144.72;5097635;28;20823;-71
2022/04/13 06:32:11;;;;;;;19.42;7.85;;;12.10;99.70;;;11.52;72.76;97143.94;5069162;28;20438;-70
2022/04/13 06:34:38;;;;;;;15.25;6.35;;;12.20;99.10;;;11.57;72.79;97145.81;5069565;28;20897;-71
2022/04/13 06:37:05;;;;;;;19.10;7.10;;;12.30;99.10;;;11.72;72.82;97145.84;5064492;28;20399;-70
2022/04/13 06:39:34;;;;;;;15.35;6.90;;;12.40;99.10;;;11.82;72.11;97151.19;5065606;28;20415;-70
2022/04/13 06:42:00;;;;;;;17.50;6.50;;;12.50;98.60;;;11.90;70.91;97153.31;5076192;28;20406;-71
2022/04/13 06:44:27;;;;;;;12.57;5.80;;;12.60;97.70;;;12.05;68.95;97144.53;5067832;28;20853;-71
2022/04/13 06:46:53;;;;;;;13.90;5.00;;;12.70;96.30;;;12.19;66.76;97147.44;5073544;28;20403;-71
2022/04/13 06:49:20;;;;;;;12.27;4.90;;;12.90;94.50;;;12.32;67.12;97160.19;5074663;28;20450;-71
2022/04/13 06:51:46;;;;;;;13.80;4.45;;;13.10;94.50;;;12.49;66.95;97158.03;5075038;28;20435;-71
2022/04/13 06:54:12;;;;;;;12.97;5.13;;;13.20;94.20;;;12.66;69.61;97163.84;5065991;28;20496;-71
2022/04/13 06:56:39;;;;;;;11.80;4.85;;;13.40;96.20;;;12.76;70.39;97165.69;5074156;28;20927;-71
2022/04/13 06:59:05;;;;;;;11.63;4.43;;;13.40;96.90;;;12.85;70.31;97157.97;5084072;28;20394;-70
2022/04/13 07:01:31;;;;;;;15.77;4.33;;;13.50;96.70;;;12.96;69.09;97164.81;5074974;28;20419;-70
2022/04/13 07:03:57;;;;;;;15.50;5.00;;;13.70;96.30;;;13.06;68.27;97162.94;5075263;28;20769;-70
2022/04/13 07:06:25;;;;;;;12.90;5.38;;;13.80;95.20;;;13.22;69.31;97166.34;5087987;28;20448;-71
2022/04/13 07:08:51;;;;;;;18.83;6.20;;;13.90;95.90;;;13.39;68.53;97168.63;5086343;28;20463;-71
2022/04/13 07:11:17;;;;;;;17.98;6.88;;;14.00;95.70;;;13.62;68.42;97164.53;5069066;28;20407;-71
2022/04/13 07:13:43;;;;;;;14.95;6.10;;;14.20;95.30;;;13.74;68.10;97172.97;5069140;28;20409;-70
2022/04/13 07:16:09;;;;;;;17.25;5.90;;;14.40;95.10;;;13.88;66.29;97173.94;5071789;28;20402;-70
2022/04/13 07:18:35;;;;;;;15.65;5.88;;;14.50;93.90;;;14.06;65.01;97167.94;5065617;28;20542;-71
2022/04/13 07:21:02;;;;;;;16.08;5.75;;;14.70;92.60;;;14.21;63.84;97170.47;5055107;28;20816;-70
2022/04/13 07:23:30;;;;;;;18.27;5.47;;;14.90;91.90;;;14.39;64.65;97171.69;5065921;28;20404;-70
2022/04/13 07:25:55;;;;;;;13.30;5.43;;;15.00;92.10;;;14.53;65.51;97167.28;5072734;28;20398;-71
2022/04/13 07:28:21;;;;;;;19.35;4.88;;;15.20;92.60;;;14.72;63.79;97170.06;5072592;28;20403;-71
2022/04/13 07:30:47;;;;;;;11.97;4.60;;;15.40;91.90;;;14.83;61.84;97170.72;5062905;28;20508;-71
2022/04/13 07:33:13;;;;;;;12.70;4.20;;;15.50;90.40;;;15.03;61.58;97175.84;5067801;28;20411;-70
2022/04/13 07:35:39;;;;;;;13.73;4.45;;;15.70;88.80;;;15.18;58.92;97175.66;5068413;28;20490;-72
2022/04/13 07:38:05;;;;;;;15.13;3.65;;;15.80;85.20;;;15.31;55.46;97174.97;5071737;28;20431;-71
2022/04/13 07:40:32;;;;;;;15.93;3.85;;;16.00;79.10;;;15.50;56.05;97174.97;5071964;28;20457;-71
2022/04/13 07:42:58;;;;;;;13.00;3.33;;;16.10;79.50;;;15.63;56.86;97170.84;5072460;28;20437;-71
2022/04/13 07:45:24;;;;;;;7.90;3.40;;;16.30;80.80;;;15.75;57.71;97176.53;5072401;28;20395;-71
2022/04/13 07:47:50;;;;;;;15.00;3.42;;;16.40;81.90;;;15.82;55.09;97177.75;5072120;28;20947;-71
2022/04/13 07:50:16;;;;;;;11.35;3.25;;;16.40;77.80;;;15.94;53.11;97184.53;5071712;28;20706;-71
2022/04/13 07:52:42;;;;;;;11.90;3.20;;;16.50;74.00;;;16.08;52.62;97182.72;5072472;28;20981;-71
2022/04/13 07:55:10;;;;;;;13.70;3.25;;;16.70;72.60;;;16.21;53.56;97182.75;5072324;28;20881;-71
2022/04/13 07:57:37;;;;;;;7.53;2.83;;;16.80;73.90;;;16.32;52.72;97186.06;5072311;28;20407;-71
2022/04/13 08:00:06;;;;;;;10.57;3.47;;;16.90;73.40;;;16.47;54.74;97193.81;5072052;28;20404;-71
2022/04/13 08:02:34;;;;;;;14.82;3.25;;;17.00;75.00;;;16.61;55.06;97188.56;5071927;28;20430;-70
2022/04/13 08:05:00;;;;;;;7.88;3.55;;;17.20;75.90;;;16.81;53.25;97193.53;5068865;28;20392;-70
2022/04/13 08:07:26;;;;;;;11.55;3.53;;;17.40;73.30;;;16.92;52.11;97183.41;5071827;28;20414;-70
2022/04/13 08:09:52;;;;;;;16.00;4.43;;;17.50;71.90;;;17.11;53.41;97191.34;5070756;28;20395;-70
2022/04/13 08:12:18;;;;;;;18.77;4.68;;;17.60;73.60;;;17.14;51.52;97191.53;5071262;28;20395;-70
2022/04/13 08:14:46;;;;;;;12.57;4.30;;;17.70;71.00;;;17.31;52.14;97197.09;5070915;28;20400;-69
2022/04/13 08:17:12;;;;;;;13.30;4.32;;;17.90;72.50;;;17.41;53.29;97202.25;5069680;28;20400;-70
2022/04/13 08:19:38;;;;;;;13.13;4.15;;;17.90;74.40;;;17.60;53.29;97204.78;5071511;28;20399;-70
2022/04/13 08:22:04;;;;;;;16.02;3.97;;;18.10;73.40;;;17.61;51.72;97202.91;5070439;28;20935;-70
2022/04/13 08:24:30;;;;;;;14.90;3.88;;;18.20;71.30;;;17.73;49.39;97201.34;5071323;28;20400;-72
2022/04/13 08:26:58;;;;;;;11.13;3.72;;;18.30;68.50;;;17.91;48.50;97206.81;5071340;28;20785;-71
2022/04/13 08:29:25;;;;;;;14.13;4.00;;;18.40;67.00;;;18.02;47.43;97200.94;5070500;28;20430;-71
2022/04/13 08:31:52;;;;;;;30.67;5.45;;;18.50;64.60;;;18.13;49.80;97204.16;5062016;28;20406;-71
2022/04/13 08:34:18;;;;;;;14.97;4.73;;;18.60;67.00;;;18.26;51.47;97205.22;5062533;28;20481;-71
2022/04/13 08:36:44;;;;;;;12.07;3.75;;;18.80;69.50;;;18.48;48.41;97206.00;5069369;28;20397;-72
2022/04/13 08:39:13;;;;;;;9.98;3.30;;;18.90;66.20;;;18.72;48.54;97212.97;5070803;28;20880;-72
2022/04/13 08:41:48;;;;;;;12.10;2.90;;;19.10;66.20;;;18.68;45.94;97217.34;5071149;28;20421;-72
2022/04/13 08:44:17;;;;;;;8.43;2.35;;;19.20;62.60;;;18.94;44.26;97216.38;5071402;28;20396;-71
2022/04/13 08:46:45;;;;;;;4.90;1.88;;;19.30;59.00;;;18.95;42.82;97217.94;5071471;28;20450;-72
2022/04/13 08:49:14;;;;;;;7.18;2.13;;;19.40;56.70;;;18.98;39.10;97213.88;5071194;28;20419;-72
2022/04/13 08:51:40;;;;;;;6.25;2.33;;;19.50;52.00;;;19.09;41.03;97220.56;5070896;28;20435;-72
2022/04/13 08:54:17;;;;;;;6.20;1.97;;;19.50;54.00;;;19.17;42.96;97216.31;5071144;28;20443;-72
2022/04/13 08:56:47;;;;;;;7.93;1.90;;;19.60;55.30;;;19.29;38.92;97221.88;5071057;28;20396;-72
2022/04/13 08:59:27;;;;;;;10.30;2.65;;;19.70;51.40;;;19.41;39.62;97219.38;5070998;28;20395;-72
2022/04/13 09:02:03;;;;;;;8.03;1.97;;;19.90;53.30;;;19.63;39.71;97223.88;5070640;28;20881;-72
2022/04/13 09:04:36;;;;;;;11.43;2.00;;;20.00;54.10;;;19.69;36.88;97214.59;5070853;28;20482;-72
2022/04/13 09:07:04;;;;;;;11.60;2.35;;;20.10;49.40;;;19.96;36.12;97227.75;5071225;28;20419;-72
2022/04/13 09:09:39;;;;;;;8.43;1.98;;;20.30;49.00;;;19.97;38.79;97223.16;5070057;28;20411;-72
2022/04/13 09:12:08;;;;;;;12.25;2.30;;;20.30;49.80;;;20.10;39.83;97220.31;5070313;28;20400;-72
2022/04/13 09:14:35;;;;;;;11.20;2.15;;;20.50;52.40;;;20.22;39.14;97227.75;5069563;28;20975;-72
2022/04/13 09:17:02;;;;;;;12.43;2.47;;;20.60;51.60;;;20.32;39.88;97216.66;5070810;28;20395;-72
2022/04/13 09:19:28;;;;;;;17.58;2.90;;;20.70;51.80;;;20.52;37.23;97217.97;5069979;28;20395;-72
2022/04/13 09:21:58;;;;;;;6.22;2.10;;;20.90;49.50;;;20.72;38.35;97219.16;5070213;28;20769;-70
2022/04/13 09:24:26;;;;;;;8.88;2.33;;;21.00;50.30;;;20.82;38.48;97216.91;5070801;28;20399;-70
2022/04/13 09:26:52;;;;;;;12.43;2.88;;;21.10;49.90;;;21.09;40.45;97214.94;5070770;28;20427;-71
2022/04/13 09:29:19;;;;;;;9.88;2.25;;;21.30;52.90;;;21.30;40.90;97215.03;5070206;28;20422;-71
2022/04/13 09:31:45;;;;;;;12.45;2.63;;;21.50;53.90;;;21.59;40.42;97210.44;5070087;28;20889;-69
2022/04/13 09:34:11;;;;;;;15.63;2.95;;;21.80;53.10;;;21.76;36.53;97212.22;5070560;28;20392;-70
2022/04/13 09:36:38;;;;;;;11.73;2.50;;;22.00;48.70;;;21.82;33.96;97208.22;5069265;28;20408;-70
2022/04/13 09:39:07;;;;;;;9.03;2.80;;;22.10;45.90;;;22.00;36.15;97212.41;5085768;28;20406;-72
2022/04/13 09:41:34;;;;;;;12.05;2.58;;;22.20;47.10;;;22.35;34.04;97217.50;5070172;28;20983;-71
2022/04/13 09:44:00;;;;;;;8.40;2.30;;;22.50;44.90;;;22.84;36.14;97220.41;5070510;28;20423;-71
2022/04/13 09:46:28;;;;;;;13.80;2.20;;;22.90;49.10;;;23.21;35.71;97215.84;5070508;28;20396;-69
2022/04/13 09:49:08;;;;;;;10.03;2.20;;;23.30;47.40;;;23.76;33.34;97220.66;5070195;28;20411;-71
2022/04/13 09:51:38;;;;;;;11.32;2.53;;;23.60;45.00;;;24.76;27.98;97219.69;5069942;28;20453;-71
2022/04/13 09:54:08;;;;;;;7.75;1.90;;;24.40;39.30;;;27.11;28.89;97225.66;5070335;28;20431;-73
2022/04/13 09:56:36;;;;;;;7.82;2.03;;;26.00;39.90;;;28.56;22.65;97219.63;5069814;28;20414;-71
2022/04/13 09:59:05;;;;;;;9.23;2.10;;;28.00;34.30;;;30.03;24.09;97217.78;5069886;28;20399;-72
2022/04/13 10:01:33;;;;;;;11.68;2.28;;;29.30;35.50;;;30.76;22.02;97213.78;5069766;28;20889;-71
2022/04/13 10:03:59;;;;;;;9.45;2.08;;;30.20;32.60;;;30.15;21.05;97220.16;5070495;28;20414;-75
2022/04/13 10:06:29;;;;;;;11.38;2.20;;;30.00;30.80;;;29.49;23.96;97213.13;5070159;28;20882;-74
2022/04/13 10:09:00;;;;;;;11.25;2.60;;;29.70;33.10;;;29.43;26.49;97215.44;5069931;28;20411;-74
2022/04/13 10:11:28;;;;;;;7.75;2.10;;;29.10;36.00;;;30.51;22.97;97214.91;5069770;28;20866;-74
2022/04/13 10:13:54;;;;;;;6.97;2.08;;;29.40;33.10;;;30.99;22.32;97207.19;5070030;28;20388;-73
2022/04/13 10:16:21;;;;;;;10.80;2.10;;;30.20;32.10;;;30.93;20.04;97200.53;5070244;28;20406;-73
2022/04/13 10:18:57;;;;;;;9.38;1.98;;;30.50;29.40;;;32.09;20.57;97207.13;5069946;28;21029;-73
2022/04/13 10:21:41;;;;;;;9.82;2.10;;;31.20;29.90;;;32.73;21.23;97196.72;5069676;28;20399;-73